Airfield :
LOGIN :

Register | Disclaimer

   EN    FR    IT 

 










Legend :    VFR   Marginal VFR   IFR   Intensive IFR   Very Intensive IFR
Visi :
Ceiling :
>= 8 km
>= 3000ft
5 to 8 km
1000 to 3000 ft
1500m to 5 km
500 to 1000 ft
800 to 1500m
200 to 500 ft
< 800m
< 200 ft
Symbols :   Thunderstorms  Fog  Heavy snow  Heavy precipitations  Wind > 20 kt
SIGMETs :     Misc.  Thunderstorms  Icing  Turbulence  Mountain Waves  Volcanic Ashes







- Airport Elevation : 184 ft
- IATA code : BRU


EBBR - Bruxelles

CURRENT METAR :
  • 270550Z 05007KT 020V090 9999 BKN011 15/13 Q1028 BECMG FEW015

EXPIRED METARs :
  • 270520Z 05008KT 9999 BKN010 14/12 Q1028 BECMG FEW015
  • 270450Z 05009KT 020V080 8000 SCT008 BKN011 14/12 Q1028 NOSIG
  • 270420Z 05008KT 020V080 8000 SCT008 BKN011 14/13 Q1028 NOSIG
  • 270350Z 05005KT 8000 BKN010 14/13 Q1027 NOSIG
  • 270320Z 04006KT 8000 BKN011 14/13 Q1027 NOSIG

TAF TAF EBBR
Valid from the 27 at 06:00 until the 28 at 12:00 UTC


270510Z 2706/2812 04010KT 9999 BKN010
BECMG 2706/2708 FEW015
No reported NOTAMs for that airfield.



MET'MAP, your aeronautical weather chart ! - Copyright ORBIFLY December 2007 - Disclaimer

ORBIFLY MET'MAP TEAM :

Programming & Development : Alexandra Zaïnal
Concept & Development : Baudouin d'Aumeries
Co-Development & Prog : Marc-Olivier Méhu
Technical & hardware support : Manuel Goepfert

Contact : metmap@orbifly.com




SOURCES & CREDITS :

   NOAA